Menno, South Dakota
Current Conditions -  °F | °C
As of 4:55 AM on Thursday 27 Nov 2014 (Local Time) from KYKN Reporting Station
Overcast Overcast  
Wind Chill: -18°   Ceiling: 4400
Heat Index: -12°   Visibility: 10mi
Dew Point: -16°   Wind: 7mph
Humidity: 73%   Direction: 10°N
Pressure: 30.5"   Gusts: NA
Location:  43.24°N, 97.58°W
Report Text: KYKN 271055Z AUTO 01006KT 10SM OVC044 M12/M16 A3050 RMK AO1
Loading
Personal Weather Stations






























Interactive Weather Map New forecast layout! Learn more

10-Day Weather Forecast

Advertisements
Track Severe Weather on mobile